createdAt,value
2022-11-28T00:01:19.823Z,98457.72
2022-11-28T00:03:47.193Z,98445.50
2022-11-28T00:06:14.371Z,98441.25
2022-11-28T00:08:41.527Z,98442.22
2022-11-28T00:11:10.301Z,98429.91
2022-11-28T00:13:37.864Z,98426.31
2022-11-28T00:16:07.601Z,98433.19
2022-11-28T00:18:35.131Z,98433.13
2022-11-28T00:21:07.759Z,98437.25
2022-11-28T00:23:34.580Z,98435.84
2022-11-28T00:26:04.212Z,98424.13
2022-11-28T00:28:31.074Z,98420.13
2022-11-28T00:30:58.164Z,98415.38
2022-11-28T00:33:25.268Z,98417.81
2022-11-28T00:35:52.097Z,98427.94
2022-11-28T00:38:18.676Z,98428.25
2022-11-28T00:40:45.388Z,98420.31
2022-11-28T00:43:12.998Z,98423.34
2022-11-28T00:45:39.807Z,98426.59
2022-11-28T00:48:06.403Z,98425.72
2022-11-28T00:50:33.162Z,98414.53
2022-11-28T00:53:00.234Z,98416.22
2022-11-28T00:55:27.219Z,98427.47
2022-11-28T00:57:55.339Z,98415.81
2022-11-28T01:00:22.155Z,98411.19
2022-11-28T01:02:48.805Z,98412.41
2022-11-28T01:05:15.569Z,98408.03
2022-11-28T01:07:42.385Z,98406.16
2022-11-28T01:10:11.405Z,98402.31
2022-11-28T01:12:39.958Z,98406.56
2022-11-28T01:15:09.343Z,98392.06
2022-11-28T01:17:36.435Z,98397.06
2022-11-28T01:20:05.244Z,98380.13
2022-11-28T01:22:32.225Z,98380.78
2022-11-28T01:24:58.908Z,98373.25
2022-11-28T01:27:25.612Z,98380.66
2022-11-28T01:29:52.508Z,98373.28
2022-11-28T01:32:19.182Z,98360.53
2022-11-28T01:34:45.815Z,98359.38
2022-11-28T01:37:12.614Z,98353.28
2022-11-28T01:39:39.204Z,98349.41
2022-11-28T01:42:05.868Z,98339.16
2022-11-28T01:44:32.664Z,98339.69
2022-11-28T01:46:59.320Z,98331.81
2022-11-28T01:49:30.577Z,98324.69
2022-11-28T01:52:03.327Z,98338.47
2022-11-28T01:54:31.872Z,98336.63
2022-11-28T01:57:02.914Z,98331.63
2022-11-28T01:59:33.972Z,98331.28
2022-11-28T02:02:02.126Z,98330.44
2022-11-28T02:04:29.048Z,98325.41
2022-11-28T02:06:55.719Z,98323.31
2022-11-28T02:09:22.712Z,98317.22
2022-11-28T02:12:15.266Z,98322.31
2022-11-28T02:15:03.282Z,98320.19
2022-11-28T02:17:48.524Z,98318.06
2022-11-28T02:20:53.109Z,98313.25
2022-11-28T02:23:48.006Z,98309.91
2022-11-28T02:26:23.627Z,98320.19
2022-11-28T02:28:59.087Z,98314.66
2022-11-28T02:32:03.346Z,98317.72
2022-11-28T02:34:57.067Z,98317.19
2022-11-28T02:37:45.349Z,98310.56
2022-11-28T02:40:32.470Z,98306.75
2022-11-28T02:43:10.157Z,98308.63
2022-11-28T02:46:11.253Z,98311.34
2022-11-28T02:48:56.126Z,98303.00
2022-11-28T02:51:26.003Z,98305.72
2022-11-28T02:53:55.220Z,98308.84
2022-11-28T02:56:24.423Z,98302.25
2022-11-28T02:58:51.536Z,98309.91
2022-11-28T03:01:27.720Z,98300.16
2022-11-28T03:03:54.530Z,98313.81
2022-11-28T03:06:27.298Z,98312.13
2022-11-28T03:09:13.910Z,98306.22
2022-11-28T03:12:18.405Z,98304.88
2022-11-28T03:14:52.508Z,98304.38
2022-11-28T03:17:26.604Z,98307.38
2022-11-28T03:20:13.304Z,98302.75
2022-11-28T03:23:16.406Z,98301.69
2022-11-28T03:26:00.507Z,98300.31
2022-11-28T03:28:47.224Z,98304.66
2022-11-28T03:31:24.544Z,98296.78
2022-11-28T03:33:55.798Z,98281.97
2022-11-28T03:36:27.824Z,98296.66
2022-11-28T03:39:00.908Z,98296.66
2022-11-28T03:42:04.992Z,98286.41
2022-11-28T03:44:44.647Z,98298.88
2022-11-28T03:47:11.846Z,98286.34
2022-11-28T03:49:40.572Z,98296.72
2022-11-28T03:52:12.179Z,98291.56
2022-11-28T03:54:41.924Z,98292.72
2022-11-28T03:57:19.670Z,98290.03
2022-11-28T03:59:54.146Z,98281.41
2022-11-28T04:02:30.995Z,98262.81
2022-11-28T04:05:09.105Z,98266.59
2022-11-28T04:07:42.929Z,98265.97
2022-11-28T04:10:26.652Z,98259.94
2022-11-28T04:12:57.318Z,98267.22
2022-11-28T04:15:37.463Z,98257.97
2022-11-28T04:18:10.226Z,98264.75
2022-11-28T04:20:48.063Z,98252.56
2022-11-28T04:23:18.279Z,98259.59
2022-11-28T04:26:11.869Z,98256.03
2022-11-28T04:28:40.737Z,98255.91
2022-11-28T04:31:18.861Z,98259.16
2022-11-28T04:33:50.711Z,98257.91
2022-11-28T04:36:20.106Z,98261.34
2022-11-28T04:38:56.089Z,98261.88
2022-11-28T04:41:46.663Z,98261.78
2022-11-28T04:44:33.242Z,98256.41
2022-11-28T04:47:00.001Z,98262.00
2022-11-28T04:49:29.207Z,98248.19
2022-11-28T04:52:07.732Z,98246.28
2022-11-28T04:54:46.904Z,98256.53
2022-11-28T04:57:30.558Z,98264.25
2022-11-28T04:59:58.305Z,98251.84
2022-11-28T05:02:25.870Z,98244.81
2022-11-28T05:04:55.911Z,98252.72
2022-11-28T05:07:24.933Z,98237.25
2022-11-28T05:09:51.874Z,98243.44
2022-11-28T05:12:18.607Z,98226.38
2022-11-28T05:14:45.378Z,98230.38
2022-11-28T05:17:13.497Z,98235.09
2022-11-28T05:19:40.195Z,98234.16
2022-11-28T05:22:06.899Z,98225.25
2022-11-28T05:24:33.617Z,98223.47
2022-11-28T05:27:00.722Z,98220.94
2022-11-28T05:29:27.406Z,98225.84
2022-11-28T05:31:54.176Z,98212.47
2022-11-28T05:34:21.027Z,98208.66
2022-11-28T05:36:47.558Z,98204.13
2022-11-28T05:39:15.036Z,98199.28
2022-11-28T05:41:41.651Z,98203.16
2022-11-28T05:44:10.224Z,98205.69
2022-11-28T05:46:36.845Z,98204.69
2022-11-28T05:49:03.612Z,98206.81
2022-11-28T05:51:30.079Z,98206.53
2022-11-28T05:53:56.832Z,98194.00
2022-11-28T05:56:23.556Z,98205.09
2022-11-28T05:58:50.659Z,98204.69
2022-11-28T06:01:24.399Z,98203.91
2022-11-28T06:03:52.399Z,98205.50
2022-11-28T06:06:21.789Z,98207.31
2022-11-28T06:08:49.908Z,98207.66
2022-11-28T06:11:17.068Z,98208.06
2022-11-28T06:13:45.547Z,98205.78
2022-11-28T06:16:16.974Z,98207.22
2022-11-28T06:18:44.484Z,98200.06
2022-11-28T06:21:12.753Z,98202.75
2022-11-28T06:23:41.152Z,98203.19
2022-11-28T06:26:11.436Z,98190.22
2022-11-28T06:28:39.299Z,98210.03
2022-11-28T06:31:13.961Z,98195.03
2022-11-28T06:33:41.717Z,98205.63
2022-11-28T06:36:10.498Z,98193.59
2022-11-28T06:38:38.264Z,98200.78
2022-11-28T06:41:11.411Z,98201.38
2022-11-28T06:43:38.598Z,98200.38
2022-11-28T06:46:05.426Z,98203.59
2022-11-28T06:48:32.556Z,98196.81
2022-11-28T06:51:04.521Z,98196.22
2022-11-28T06:53:31.750Z,98183.00
2022-11-28T06:55:58.699Z,98182.72
2022-11-28T06:58:25.440Z,98193.66
2022-11-28T07:00:52.148Z,98183.66
2022-11-28T07:03:18.846Z,98185.34
2022-11-28T07:05:45.693Z,98187.47
2022-11-28T07:08:12.384Z,98196.53
2022-11-28T07:10:39.391Z,98200.19
2022-11-28T07:13:06.023Z,98204.06
2022-11-28T07:15:32.695Z,98193.50
2022-11-28T07:17:59.298Z,98205.75
2022-11-28T07:20:25.910Z,98202.66
2022-11-28T07:22:52.914Z,98199.00
2022-11-28T07:25:19.684Z,98199.28
2022-11-28T07:27:46.283Z,98200.13
2022-11-28T07:30:13.351Z,98193.34
2022-11-28T07:32:41.123Z,98190.81
2022-11-28T07:35:09.038Z,98187.25
2022-11-28T07:37:36.515Z,98183.06
2022-11-28T07:40:04.277Z,98180.28
2022-11-28T07:42:30.891Z,98174.50
2022-11-28T07:45:04.279Z,98179.44
2022-11-28T07:47:34.859Z,98171.47
2022-11-28T07:50:01.541Z,98172.47
2022-11-28T07:52:28.165Z,98181.28
2022-11-28T07:54:55.240Z,98174.75
2022-11-28T07:57:22.495Z,98172.66
2022-11-28T07:59:49.119Z,98180.34
2022-11-28T08:02:16.068Z,98167.03
2022-11-28T08:04:48.599Z,98168.94
2022-11-28T08:07:17.255Z,98174.94
2022-11-28T08:09:44.175Z,98174.84
2022-11-28T08:12:12.261Z,98177.94
2022-11-28T08:14:38.980Z,98173.72
2022-11-28T08:17:05.685Z,98173.31
2022-11-28T08:19:35.398Z,98173.34
2022-11-28T08:22:02.334Z,98169.59
2022-11-28T08:24:28.893Z,98160.34
2022-11-28T08:26:55.439Z,98158.22
2022-11-28T08:29:22.149Z,98157.75
2022-11-28T08:31:48.792Z,98156.06
2022-11-28T08:34:15.528Z,98155.69
2022-11-28T08:36:43.533Z,98156.34
2022-11-28T08:39:27.536Z,98150.91
2022-11-28T08:41:59.878Z,98152.97
2022-11-28T08:44:30.234Z,98154.19
2022-11-28T08:46:57.314Z,98156.72
2022-11-28T08:49:23.851Z,98146.94
2022-11-28T08:51:51.246Z,98147.78
2022-11-28T08:54:17.861Z,98134.06
2022-11-28T08:56:46.821Z,98142.91
2022-11-28T08:59:13.779Z,98138.19
2022-11-28T09:01:41.035Z,98135.00
2022-11-28T09:04:07.966Z,98125.50
2022-11-28T09:06:34.674Z,98123.00
2022-11-28T09:09:03.008Z,98127.19
2022-11-28T09:11:29.753Z,98135.09
2022-11-28T09:13:56.833Z,98141.56
2022-11-28T09:16:23.562Z,98132.31
2022-11-28T09:18:54.885Z,98132.75
2022-11-28T09:21:21.753Z,98121.31
2022-11-28T09:23:48.345Z,98121.53
2022-11-28T09:26:20.174Z,98120.50
2022-11-28T09:28:48.223Z,98130.56
2022-11-28T09:31:16.968Z,98130.03
2022-11-28T09:33:44.265Z,98120.94
2022-11-28T09:36:13.784Z,98131.09
2022-11-28T09:38:40.500Z,98129.69
2022-11-28T09:41:25.898Z,98116.00
2022-11-28T09:43:55.732Z,98114.13
2022-11-28T09:46:28.792Z,98108.94
2022-11-28T09:49:00.539Z,98100.81
2022-11-28T09:51:55.347Z,98101.38
2022-11-28T09:54:50.212Z,98079.91
2022-11-28T09:57:29.782Z,98087.59
2022-11-28T09:59:56.459Z,98084.16
2022-11-28T10:02:39.834Z,98079.88
2022-11-28T10:05:20.656Z,98073.03
2022-11-28T10:07:55.105Z,98081.69
2022-11-28T10:10:31.138Z,98087.38
2022-11-28T10:12:57.782Z,98078.59
2022-11-28T10:15:33.597Z,98089.63
2022-11-28T10:18:33.328Z,98084.59
2022-11-28T10:21:12.922Z,98085.06
2022-11-28T10:23:45.395Z,98078.84
2022-11-28T10:26:25.707Z,98080.47
2022-11-28T10:28:55.598Z,98081.09
2022-11-28T10:31:33.575Z,98079.63
2022-11-28T10:34:09.626Z,98080.16
2022-11-28T10:37:02.370Z,98073.56
2022-11-28T10:39:29.124Z,98067.53
2022-11-28T10:42:11.903Z,98078.63
2022-11-28T10:44:44.513Z,98076.28
2022-11-28T10:47:20.129Z,98069.47
2022-11-28T10:50:05.829Z,98065.97
2022-11-28T10:52:49.618Z,98061.72
2022-11-28T10:55:58.510Z,98069.50
2022-11-28T10:58:37.124Z,98070.44
2022-11-28T11:01:04.613Z,98064.53
2022-11-28T11:03:35.784Z,98056.78
2022-11-28T11:06:03.106Z,98062.69
2022-11-28T11:08:34.970Z,98060.66
2022-11-28T11:11:04.525Z,98061.44
2022-11-28T11:13:55.641Z,98054.97
2022-11-28T11:16:22.963Z,98072.28
2022-11-28T11:18:49.547Z,98063.03
2022-11-28T11:21:25.037Z,98055.66
2022-11-28T11:24:27.050Z,98058.16
2022-11-28T11:27:02.415Z,98054.88
2022-11-28T11:29:29.102Z,98055.06
2022-11-28T11:31:55.873Z,98048.59
2022-11-28T11:34:24.326Z,98043.28
2022-11-28T11:36:51.717Z,98039.59
2022-11-28T11:39:25.667Z,98040.69
2022-11-28T11:42:11.518Z,98040.84
2022-11-28T11:44:38.154Z,98036.13
2022-11-28T11:47:06.481Z,98042.28
2022-11-28T11:49:37.227Z,98036.91
2022-11-28T11:52:15.027Z,98028.97
2022-11-28T11:54:58.458Z,98034.41
2022-11-28T11:57:44.371Z,98027.69
2022-11-28T12:00:20.998Z,98023.19
2022-11-28T12:02:54.090Z,98014.25
2022-11-28T12:05:28.458Z,98022.44
2022-11-28T12:08:02.322Z,98014.69
2022-11-28T12:10:34.651Z,98010.56
2022-11-28T12:13:04.833Z,98024.44
2022-11-28T12:15:45.423Z,98022.47
2022-11-28T12:18:35.906Z,98017.38
2022-11-28T12:21:19.071Z,98014.50
2022-11-28T12:24:10.034Z,98013.84
2022-11-28T12:26:43.071Z,98013.84
2022-11-28T12:29:38.539Z,98013.41
2022-11-28T12:32:36.294Z,98021.50
2022-11-28T12:35:42.782Z,98017.69
2022-11-28T12:38:24.788Z,98011.31
2022-11-28T12:41:16.280Z,98019.41
2022-11-28T12:43:57.957Z,98019.00
2022-11-28T12:46:49.257Z,98011.91
2022-11-28T12:49:22.978Z,98012.19
2022-11-28T12:52:31.561Z,98014.44
2022-11-28T12:55:04.244Z,98000.22
2022-11-28T12:57:45.359Z,98001.69
2022-11-28T13:00:25.250Z,98006.50
2022-11-28T13:03:26.279Z,98002.97
2022-11-28T13:06:05.138Z,97994.94
2022-11-28T13:08:49.377Z,97996.81
2022-11-28T13:11:22.125Z,98004.97
2022-11-28T13:13:59.087Z,98001.25
2022-11-28T13:16:48.101Z,98002.28
2022-11-28T13:19:33.252Z,97999.03
2022-11-28T13:22:23.443Z,97995.25
2022-11-28T13:25:07.025Z,97991.91
2022-11-28T13:27:56.699Z,97986.78
2022-11-28T13:30:26.044Z,97983.47
2022-11-28T13:33:16.718Z,97976.53
2022-11-28T13:35:46.463Z,97991.16
2022-11-28T13:38:42.533Z,97991.31
2022-11-28T13:42:09.654Z,97981.47
2022-11-28T13:44:49.883Z,97980.38
2022-11-28T13:47:22.486Z,97991.78
2022-11-28T13:49:49.613Z,97983.28
2022-11-28T13:52:19.175Z,97983.53
2022-11-28T13:54:53.855Z,97986.25
2022-11-28T13:57:29.722Z,97979.34
2022-11-28T14:00:06.897Z,97980.66
2022-11-28T14:02:46.498Z,97978.59
2022-11-28T14:05:37.176Z,97980.00
2022-11-28T14:08:05.611Z,97974.25
2022-11-28T14:10:49.585Z,97979.41
2022-11-28T14:13:44.124Z,97980.47
2022-11-28T14:16:54.517Z,97984.09
2022-11-28T14:19:30.440Z,97988.47
2022-11-28T14:22:22.405Z,97988.97
2022-11-28T14:25:01.175Z,97986.00
2022-11-28T14:27:36.247Z,97988.34
2022-11-28T14:30:07.655Z,98001.84
2022-11-28T14:32:36.611Z,97999.38
2022-11-28T14:35:06.788Z,97989.88
2022-11-28T14:37:47.779Z,97994.97
2022-11-28T14:40:53.394Z,97993.81
2022-11-28T14:43:43.838Z,97998.53
2022-11-28T14:46:22.254Z,98000.56
2022-11-28T14:48:58.244Z,97999.09
2022-11-28T14:52:00.039Z,97995.94
2022-11-28T14:54:42.479Z,97997.41
2022-11-28T14:57:16.718Z,98006.31
2022-11-28T14:59:43.956Z,98007.88
2022-11-28T15:02:11.006Z,98019.59
2022-11-28T15:04:50.040Z,98021.63
2022-11-28T15:07:50.221Z,98017.41
2022-11-28T15:10:52.967Z,98017.53
2022-11-28T15:13:20.034Z,98018.66
2022-11-28T15:15:51.900Z,98026.38
2022-11-28T15:18:25.240Z,98023.38
2022-11-28T15:21:03.277Z,98028.16
2022-11-28T15:23:31.996Z,98043.44
2022-11-28T15:26:00.210Z,98034.69
2022-11-28T15:28:28.937Z,98035.13
2022-11-28T15:30:57.680Z,98015.47
2022-11-28T15:33:26.402Z,98027.25
2022-11-28T15:36:20.858Z,98023.75
2022-11-28T15:38:48.502Z,98021.38
2022-11-28T15:41:21.249Z,98020.44
2022-11-28T15:43:48.228Z,98022.06
2022-11-28T15:46:21.037Z,98024.13
2022-11-28T15:48:50.139Z,98032.16
2022-11-28T15:51:32.693Z,98030.09
2022-11-28T15:54:00.523Z,98024.16
2022-11-28T15:56:27.466Z,98025.63
2022-11-28T15:58:54.409Z,98027.03
2022-11-28T16:01:24.024Z,98024.13
2022-11-28T16:03:59.642Z,98022.19
2022-11-28T16:06:36.618Z,98022.34
2022-11-28T16:09:29.470Z,98017.28
2022-11-28T16:11:56.515Z,98014.09
2022-11-28T16:14:40.558Z,98025.25
2022-11-28T16:17:23.801Z,98017.31
2022-11-28T16:19:53.974Z,98020.47
2022-11-28T16:22:27.289Z,98020.84
2022-11-28T16:24:55.995Z,98013.25
2022-11-28T16:27:29.199Z,98017.97
2022-11-28T16:29:56.378Z,98012.53
2022-11-28T16:32:37.934Z,98012.31
2022-11-28T16:35:06.111Z,98015.91
2022-11-28T16:37:33.361Z,97994.81
2022-11-28T16:40:06.777Z,98002.50
2022-11-28T16:42:35.458Z,98011.31
2022-11-28T16:45:21.220Z,98012.47
2022-11-28T16:47:55.827Z,98007.97
2022-11-28T16:50:23.940Z,98018.88
2022-11-28T16:53:00.262Z,98019.50
2022-11-28T16:55:38.242Z,98016.03
2022-11-28T16:58:21.178Z,98016.63
2022-11-28T17:00:59.340Z,98016.03
2022-11-28T17:03:42.213Z,98018.22
2022-11-28T17:06:18.239Z,98014.22
2022-11-28T17:08:45.329Z,98017.53
2022-11-28T17:11:13.791Z,98016.34
2022-11-28T17:13:40.616Z,98009.44
2022-11-28T17:16:16.218Z,98007.44
2022-11-28T17:18:43.841Z,98003.94
2022-11-28T17:21:12.417Z,98009.56
2022-11-28T17:23:40.965Z,97999.81
2022-11-28T17:26:08.534Z,98003.66
2022-11-28T17:28:35.280Z,97997.47
2022-11-28T17:31:01.894Z,98006.06
2022-11-28T17:33:28.590Z,98004.38
2022-11-28T17:35:56.251Z,98004.50
2022-11-28T17:38:22.936Z,98003.56
2022-11-28T17:40:49.457Z,98009.78
2022-11-28T17:43:18.279Z,98013.16
2022-11-28T17:45:45.749Z,98019.38
2022-11-28T17:48:18.999Z,98013.81
2022-11-28T17:50:50.605Z,98015.56
2022-11-28T17:53:19.603Z,98015.78
2022-11-28T17:55:48.864Z,98012.91
2022-11-28T17:58:23.936Z,98015.41
2022-11-28T18:00:53.943Z,98012.09
2022-11-28T18:03:29.241Z,98006.22
2022-11-28T18:05:55.923Z,98007.91
2022-11-28T18:08:22.911Z,98002.03
2022-11-28T18:10:50.780Z,98011.00
2022-11-28T18:13:18.059Z,98004.78
2022-11-28T18:15:47.552Z,97999.09
2022-11-28T18:18:15.551Z,98002.63
2022-11-28T18:20:42.582Z,97993.81
2022-11-28T18:23:10.488Z,97996.34
2022-11-28T18:25:41.686Z,97993.81
2022-11-28T18:28:08.420Z,97987.97
2022-11-28T18:30:35.107Z,97984.09
2022-11-28T18:33:01.928Z,97985.09
2022-11-28T18:35:28.636Z,97975.03
2022-11-28T18:37:55.578Z,97978.25
2022-11-28T18:40:22.185Z,97977.97
2022-11-28T18:42:48.838Z,97983.63
2022-11-28T18:45:15.622Z,97982.97
2022-11-28T18:47:42.547Z,97977.59
2022-11-28T18:50:09.540Z,97988.78
2022-11-28T18:52:36.303Z,97987.28
2022-11-28T18:55:04.114Z,97996.78
2022-11-28T18:57:34.709Z,97996.06
2022-11-28T19:00:02.132Z,98002.91
2022-11-28T19:02:29.460Z,97996.56
2022-11-28T19:04:56.882Z,97996.41
2022-11-28T19:07:24.873Z,97996.31
2022-11-28T19:09:52.554Z,97987.00
2022-11-28T19:12:20.372Z,98003.69
2022-11-28T19:14:47.045Z,98010.97
2022-11-28T19:17:14.184Z,98005.94
2022-11-28T19:19:41.385Z,98000.72
2022-11-28T19:22:08.383Z,98002.13
2022-11-28T19:24:35.202Z,97996.84
2022-11-28T19:27:01.956Z,97998.38
2022-11-28T19:29:28.531Z,98000.75
2022-11-28T19:31:55.580Z,98000.84
2022-11-28T19:34:23.064Z,97995.47
2022-11-28T19:36:51.160Z,97990.94
2022-11-28T19:39:19.858Z,97987.56
2022-11-28T19:41:47.391Z,97984.59
2022-11-28T19:44:14.980Z,97991.88
2022-11-28T19:46:42.805Z,97980.56
2022-11-28T19:49:19.337Z,97974.50
2022-11-28T19:51:47.171Z,97983.03
2022-11-28T19:54:15.247Z,97974.16
2022-11-28T19:56:42.193Z,97974.25
2022-11-28T19:59:10.635Z,97973.78
2022-11-28T20:01:38.958Z,97975.34
2022-11-28T20:04:06.018Z,97987.22
2022-11-28T20:06:34.106Z,97986.41
2022-11-28T20:09:07.333Z,97994.44
2022-11-28T20:11:37.740Z,97993.72
2022-11-28T20:14:06.969Z,98006.09
2022-11-28T20:16:35.835Z,98002.91
2022-11-28T20:19:05.817Z,97997.41
2022-11-28T20:21:34.264Z,98009.66
2022-11-28T20:24:07.343Z,98010.19
2022-11-28T20:26:38.831Z,98020.72
2022-11-28T20:29:06.249Z,98014.19
2022-11-28T20:31:42.056Z,98014.94
2022-11-28T20:34:08.945Z,98013.47
2022-11-28T20:36:36.336Z,98000.78
2022-11-28T20:39:04.658Z,98019.03
2022-11-28T20:41:31.324Z,98011.34
2022-11-28T20:44:01.946Z,98022.03
2022-11-28T20:46:31.023Z,98022.13
2022-11-28T20:48:59.886Z,98018.88
2022-11-28T20:51:28.913Z,98030.16
2022-11-28T20:53:57.989Z,98014.34
2022-11-28T20:56:27.814Z,98032.38
2022-11-28T20:58:54.700Z,98026.91
2022-11-28T21:01:24.707Z,98013.25
2022-11-28T21:03:52.403Z,98032.47
2022-11-28T21:06:19.641Z,98027.72
2022-11-28T21:08:46.757Z,98026.34
2022-11-28T21:11:30.976Z,98025.56
2022-11-28T21:14:04.949Z,98021.56
2022-11-28T21:16:33.286Z,98032.63
2022-11-28T21:19:07.633Z,98033.00
2022-11-28T21:21:37.184Z,98030.00
2022-11-28T21:24:12.547Z,98035.34
2022-11-28T21:26:53.859Z,98029.56
2022-11-28T21:29:22.208Z,98024.50
2022-11-28T21:31:49.094Z,98028.50
2022-11-28T21:34:16.758Z,98014.47
2022-11-28T21:36:44.192Z,98029.03
2022-11-28T21:39:14.042Z,98035.72
2022-11-28T21:41:40.996Z,98027.75
2022-11-28T21:44:08.193Z,98022.69
2022-11-28T21:46:34.860Z,98012.16
2022-11-28T21:49:01.984Z,98014.38
2022-11-28T21:51:28.845Z,98015.00
2022-11-28T21:53:57.598Z,98013.44
2022-11-28T21:56:24.991Z,98021.66
2022-11-28T21:58:52.428Z,98018.53
2022-11-28T22:01:20.353Z,98011.09
2022-11-28T22:03:49.116Z,98017.31
2022-11-28T22:06:21.842Z,98016.25
2022-11-28T22:08:49.132Z,98021.75
2022-11-28T22:11:16.521Z,98019.59
2022-11-28T22:13:47.168Z,98005.72
2022-11-28T22:16:18.809Z,98022.50
2022-11-28T22:18:47.383Z,98022.28
2022-11-28T22:21:49.977Z,98021.06
2022-11-28T22:24:03.330Z,98025.16
2022-11-28T22:26:30.045Z,98021.28
2022-11-28T22:28:58.905Z,98018.16
2022-11-28T22:31:25.909Z,98016.78
2022-11-28T22:33:52.864Z,98014.16
2022-11-28T22:36:21.579Z,98015.84
2022-11-28T22:38:49.540Z,98013.41
2022-11-28T22:41:27.625Z,98017.19
2022-11-28T22:43:57.312Z,98012.41
2022-11-28T22:46:24.353Z,98016.41
2022-11-28T22:48:51.947Z,98008.19
2022-11-28T22:51:21.822Z,98015.38
2022-11-28T22:53:52.834Z,98018.53
2022-11-28T22:56:19.538Z,98013.91
2022-11-28T22:58:46.583Z,98020.38
2022-11-28T23:01:17.396Z,98028.50
2022-11-28T23:03:45.448Z,98030.53
2022-11-28T23:06:19.382Z,98030.91
2022-11-28T23:08:46.817Z,98027.53
2022-11-28T23:11:17.722Z,98031.03
2022-11-28T23:13:45.526Z,98024.50
2022-11-28T23:16:28.079Z,98034.72
2022-11-28T23:18:58.078Z,98031.66
2022-11-28T23:21:28.344Z,98028.88
2022-11-28T23:23:55.564Z,98035.66
2022-11-28T23:26:24.902Z,98027.84
2022-11-28T23:28:53.527Z,98031.34
2022-11-28T23:31:23.249Z,98024.50
2022-11-28T23:33:50.676Z,98019.84
2022-11-28T23:36:29.830Z,98028.63
2022-11-28T23:39:01.061Z,98028.94
2022-11-28T23:41:29.794Z,98025.03
2022-11-28T23:43:57.214Z,98026.00
2022-11-28T23:46:25.101Z,98025.31
2022-11-28T23:48:52.168Z,98022.16
2022-11-28T23:51:21.895Z,98026.38
2022-11-28T23:53:50.000Z,98027.50
2022-11-28T23:56:23.148Z,98011.59
2022-11-28T23:58:50.983Z,98025.19
